sensor_id;sensor_type;location;lat;lon;timestamp;pressure;altitude;pressure_sealevel;temperature;humidity
45731;BME280;31440;48.584;13.460;2023-04-25T00:00:35;96219.00;;;8.33;100.00
45731;BME280;31440;48.584;13.460;2023-04-25T00:03:40;96217.50;;;8.51;100.00
45731;BME280;31440;48.584;13.460;2023-04-25T00:06:45;96222.72;;;8.72;100.00
45731;BME280;31440;48.584;13.460;2023-04-25T00:09:50;96217.16;;;8.60;100.00
45731;BME280;31440;48.584;13.460;2023-04-25T00:12:55;96222.63;;;8.04;100.00
45731;BME280;31440;48.584;13.460;2023-04-25T00:15:59;96218.00;;;7.89;100.00
45731;BME280;31440;48.584;13.460;2023-04-25T00:19:04;96221.06;;;7.49;100.00
45731;BME280;31440;48.584;13.460;2023-04-25T00:22:09;96227.41;;;7.65;100.00
45731;BME280;31440;48.584;13.460;2023-04-25T00:25:13;96214.50;;;7.39;100.00
45731;BME280;31440;48.584;13.460;2023-04-25T00:28:18;96213.25;;;7.50;100.00
45731;BME280;31440;48.584;13.460;2023-04-25T00:31:22;96209.13;;;7.71;100.00
45731;BME280;31440;48.584;13.460;2023-04-25T00:34:27;96207.31;;;8.23;100.00
45731;BME280;31440;48.584;13.460;2023-04-25T00:37:32;96208.50;;;8.37;100.00
45731;BME280;31440;48.584;13.460;2023-04-25T00:40:36;96206.97;;;7.84;100.00
45731;BME280;31440;48.584;13.460;2023-04-25T00:43:41;96208.00;;;7.78;100.00
45731;BME280;31440;48.584;13.460;2023-04-25T00:46:47;96204.97;;;7.41;100.00
45731;BME280;31440;48.584;13.460;2023-04-25T00:49:52;96199.03;;;7.63;100.00
45731;BME280;31440;48.584;13.460;2023-04-25T00:52:57;96204.22;;;7.88;100.00
45731;BME280;31440;48.584;13.460;2023-04-25T00:59:09;96195.34;;;7.70;100.00
45731;BME280;31440;48.584;13.460;2023-04-25T01:02:14;96193.59;;;7.46;100.00
45731;BME280;31440;48.584;13.460;2023-04-25T01:05:18;96187.28;;;7.55;100.00
45731;BME280;31440;48.584;13.460;2023-04-25T01:08:24;96188.81;;;7.34;100.00
45731;BME280;31440;48.584;13.460;2023-04-25T01:11:31;96189.06;;;7.25;100.00
45731;BME280;31440;48.584;13.460;2023-04-25T01:17:43;96191.41;;;7.34;100.00
45731;BME280;31440;48.584;13.460;2023-04-25T01:20:51;96171.13;;;7.48;100.00
45731;BME280;31440;48.584;13.460;2023-04-25T01:23:57;96179.81;;;7.72;100.00
45731;BME280;31440;48.584;13.460;2023-04-25T01:27:03;96177.38;;;7.67;100.00
45731;BME280;31440;48.584;13.460;2023-04-25T01:30:10;96172.22;;;7.67;100.00
45731;BME280;31440;48.584;13.460;2023-04-25T01:33:15;96176.66;;;7.38;100.00
45731;BME280;31440;48.584;13.460;2023-04-25T01:36:21;96169.41;;;7.49;100.00
45731;BME280;31440;48.584;13.460;2023-04-25T01:39:26;96162.53;;;7.97;100.00
45731;BME280;31440;48.584;13.460;2023-04-25T01:42:32;96161.19;;;7.62;100.00
45731;BME280;31440;48.584;13.460;2023-04-25T01:45:41;96162.34;;;7.79;100.00
45731;BME280;31440;48.584;13.460;2023-04-25T01:48:47;96166.66;;;8.03;100.00
45731;BME280;31440;48.584;13.460;2023-04-25T01:51:52;96167.34;;;7.83;100.00
45731;BME280;31440;48.584;13.460;2023-04-25T01:54:59;96170.56;;;7.90;100.00
45731;BME280;31440;48.584;13.460;2023-04-25T01:58:06;96171.56;;;7.86;100.00
45731;BME280;31440;48.584;13.460;2023-04-25T02:01:34;96186.06;;;7.65;100.00
45731;BME280;31440;48.584;13.460;2023-04-25T02:04:52;96179.44;;;7.30;100.00
45731;BME280;31440;48.584;13.460;2023-04-25T02:07:58;96172.81;;;7.49;100.00
45731;BME280;31440;48.584;13.460;2023-04-25T02:11:03;96176.88;;;7.30;100.00
45731;BME280;31440;48.584;13.460;2023-04-25T02:14:15;96165.44;;;7.11;100.00
45731;BME280;31440;48.584;13.460;2023-04-25T02:17:26;96167.22;;;7.09;100.00
45731;BME280;31440;48.584;13.460;2023-04-25T02:20:31;96179.69;;;6.96;100.00
45731;BME280;31440;48.584;13.460;2023-04-25T02:23:36;96174.38;;;7.00;100.00
45731;BME280;31440;48.584;13.460;2023-04-25T02:26:40;96167.66;;;7.23;100.00
45731;BME280;31440;48.584;13.460;2023-04-25T02:29:46;96158.88;;;7.55;100.00
45731;BME280;31440;48.584;13.460;2023-04-25T02:32:50;96154.22;;;7.64;100.00
45731;BME280;31440;48.584;13.460;2023-04-25T02:35:55;96165.75;;;7.79;100.00
45731;BME280;31440;48.584;13.460;2023-04-25T02:39:00;96155.72;;;7.72;100.00
45731;BME280;31440;48.584;13.460;2023-04-25T02:42:05;96145.13;;;7.54;100.00
45731;BME280;31440;48.584;13.460;2023-04-25T02:45:09;96146.03;;;6.99;100.00
45731;BME280;31440;48.584;13.460;2023-04-25T02:48:14;96139.78;;;7.34;100.00
45731;BME280;31440;48.584;13.460;2023-04-25T02:51:18;96141.19;;;7.43;100.00
45731;BME280;31440;48.584;13.460;2023-04-25T02:54:23;96128.75;;;7.79;100.00
45731;BME280;31440;48.584;13.460;2023-04-25T02:57:27;96117.38;;;7.34;100.00
45731;BME280;31440;48.584;13.460;2023-04-25T03:00:33;96136.81;;;6.92;100.00
45731;BME280;31440;48.584;13.460;2023-04-25T03:03:38;96131.56;;;7.21;100.00
45731;BME280;31440;48.584;13.460;2023-04-25T03:09:48;96127.72;;;7.59;100.00
45731;BME280;31440;48.584;13.460;2023-04-25T03:12:53;96126.69;;;7.63;100.00
45731;BME280;31440;48.584;13.460;2023-04-25T03:15:57;96128.28;;;7.67;100.00
45731;BME280;31440;48.584;13.460;2023-04-25T03:19:03;96132.50;;;7.45;100.00
45731;BME280;31440;48.584;13.460;2023-04-25T03:22:09;96135.06;;;6.92;100.00
45731;BME280;31440;48.584;13.460;2023-04-25T03:28:20;96132.53;;;6.91;100.00
45731;BME280;31440;48.584;13.460;2023-04-25T03:31:25;96130.72;;;7.21;100.00
45731;BME280;31440;48.584;13.460;2023-04-25T03:34:30;96133.63;;;7.38;100.00
45731;BME280;31440;48.584;13.460;2023-04-25T03:37:35;96132.72;;;7.39;100.00
45731;BME280;31440;48.584;13.460;2023-04-25T03:40:39;96128.75;;;7.27;100.00
45731;BME280;31440;48.584;13.460;2023-04-25T03:43:57;96116.69;;;7.28;100.00
45731;BME280;31440;48.584;13.460;2023-04-25T03:47:01;96124.81;;;7.44;100.00
45731;BME280;31440;48.584;13.460;2023-04-25T03:50:07;96113.44;;;7.49;100.00
45731;BME280;31440;48.584;13.460;2023-04-25T03:53:12;96125.34;;;7.53;100.00
45731;BME280;31440;48.584;13.460;2023-04-25T03:56:36;96123.88;;;7.71;100.00
45731;BME280;31440;48.584;13.460;2023-04-25T03:59:53;96094.59;;;7.95;100.00
45731;BME280;31440;48.584;13.460;2023-04-25T04:02:58;96121.34;;;7.69;100.00
45731;BME280;31440;48.584;13.460;2023-04-25T04:06:04;96115.84;;;7.27;100.00
45731;BME280;31440;48.584;13.460;2023-04-25T04:09:12;96114.59;;;7.41;100.00
45731;BME280;31440;48.584;13.460;2023-04-25T04:12:20;96116.47;;;7.85;100.00
45731;BME280;31440;48.584;13.460;2023-04-25T04:15:24;96117.00;;;7.70;100.00
45731;BME280;31440;48.584;13.460;2023-04-25T04:18:29;96083.75;;;7.36;100.00
45731;BME280;31440;48.584;13.460;2023-04-25T04:21:34;96111.16;;;7.65;100.00
45731;BME280;31440;48.584;13.460;2023-04-25T04:24:40;96128.44;;;7.63;100.00
45731;BME280;31440;48.584;13.460;2023-04-25T04:27:46;96125.84;;;7.88;100.00
45731;BME280;31440;48.584;13.460;2023-04-25T04:30:58;96123.38;;;7.85;100.00
45731;BME280;31440;48.584;13.460;2023-04-25T04:34:05;96125.75;;;7.91;100.00
45731;BME280;31440;48.584;13.460;2023-04-25T04:37:11;96131.13;;;7.85;100.00
45731;BME280;31440;48.584;13.460;2023-04-25T04:40:18;96111.63;;;7.76;100.00
45731;BME280;31440;48.584;13.460;2023-04-25T04:43:29;96130.72;;;7.72;100.00
45731;BME280;31440;48.584;13.460;2023-04-25T04:46:48;96117.69;;;7.75;100.00
45731;BME280;31440;48.584;13.460;2023-04-25T04:50:18;96100.97;;;7.60;100.00
45731;BME280;31440;48.584;13.460;2023-04-25T04:56:59;96094.00;;;7.39;100.00
45731;BME280;31440;48.584;13.460;2023-04-25T05:03:49;96130.84;;;8.16;100.00
45731;BME280;31440;48.584;13.460;2023-04-25T05:07:14;96135.94;;;7.95;100.00
45731;BME280;31440;48.584;13.460;2023-04-25T05:10:36;96134.66;;;7.82;100.00
45731;BME280;31440;48.584;13.460;2023-04-25T05:17:17;96081.63;;;7.72;100.00
45731;BME280;31440;48.584;13.460;2023-04-25T05:20:45;96131.75;;;8.38;100.00
45731;BME280;31440;48.584;13.460;2023-04-25T05:23:53;96135.41;;;8.56;100.00
45731;BME280;31440;48.584;13.460;2023-04-25T05:27:17;96116.41;;;10.41;100.00
45731;BME280;31440;48.584;13.460;2023-04-25T05:30:42;96119.91;;;9.82;100.00
45731;BME280;31440;48.584;13.460;2023-04-25T05:34:02;96112.28;;;9.17;100.00
45731;BME280;31440;48.584;13.460;2023-04-25T05:37:28;96117.53;;;9.15;100.00
45731;BME280;31440;48.584;13.460;2023-04-25T05:40:43;96119.34;;;9.35;100.00
45731;BME280;31440;48.584;13.460;2023-04-25T05:43:53;96123.53;;;9.58;100.00
45731;BME280;31440;48.584;13.460;2023-04-25T05:47:05;96125.31;;;8.93;100.00
45731;BME280;31440;48.584;13.460;2023-04-25T05:50:38;96124.00;;;8.83;100.00
45731;BME280;31440;48.584;13.460;2023-04-25T05:54:02;96124.34;;;8.74;100.00
45731;BME280;31440;48.584;13.460;2023-04-25T05:57:08;96105.44;;;8.72;100.00
45731;BME280;31440;48.584;13.460;2023-04-25T06:00:13;96115.06;;;8.68;100.00
45731;BME280;31440;48.584;13.460;2023-04-25T06:03:22;96113.66;;;9.03;100.00
45731;BME280;31440;48.584;13.460;2023-04-25T06:06:27;96105.41;;;9.16;100.00
45731;BME280;31440;48.584;13.460;2023-04-25T06:09:32;96092.38;;;8.75;100.00
45731;BME280;31440;48.584;13.460;2023-04-25T06:12:36;96112.19;;;8.98;100.00
45731;BME280;31440;48.584;13.460;2023-04-25T06:15:42;96106.13;;;9.61;100.00
45731;BME280;31440;48.584;13.460;2023-04-25T06:18:48;96101.69;;;9.23;100.00
45731;BME280;31440;48.584;13.460;2023-04-25T06:21:53;96109.88;;;9.34;100.00
45731;BME280;31440;48.584;13.460;2023-04-25T06:24:57;96104.50;;;9.38;100.00
45731;BME280;31440;48.584;13.460;2023-04-25T06:28:04;96098.94;;;9.48;100.00
45731;BME280;31440;48.584;13.460;2023-04-25T06:31:09;96101.91;;;9.38;100.00
45731;BME280;31440;48.584;13.460;2023-04-25T06:34:16;96066.09;;;9.68;100.00
45731;BME280;31440;48.584;13.460;2023-04-25T06:37:21;96101.50;;;8.85;100.00
45731;BME280;31440;48.584;13.460;2023-04-25T06:40:27;96101.34;;;8.45;100.00
45731;BME280;31440;48.584;13.460;2023-04-25T06:43:33;96096.94;;;9.12;100.00
45731;BME280;31440;48.584;13.460;2023-04-25T06:47:07;96092.41;;;10.17;100.00
45731;BME280;31440;48.584;13.460;2023-04-25T06:50:11;96098.09;;;9.47;100.00
45731;BME280;31440;48.584;13.460;2023-04-25T06:53:16;96102.16;;;9.32;100.00
45731;BME280;31440;48.584;13.460;2023-04-25T06:56:24;96099.25;;;8.76;100.00
45731;BME280;31440;48.584;13.460;2023-04-25T06:59:49;96057.69;;;8.59;100.00
45731;BME280;31440;48.584;13.460;2023-04-25T07:02:53;96107.03;;;9.20;100.00
45731;BME280;31440;48.584;13.460;2023-04-25T07:05:58;96109.63;;;8.53;100.00
45731;BME280;31440;48.584;13.460;2023-04-25T07:09:03;96109.19;;;8.65;100.00
45731;BME280;31440;48.584;13.460;2023-04-25T07:12:09;96105.38;;;8.07;100.00
45731;BME280;31440;48.584;13.460;2023-04-25T07:15:15;96099.53;;;8.47;100.00
45731;BME280;31440;48.584;13.460;2023-04-25T07:18:24;96053.09;;;8.44;100.00
45731;BME280;31440;48.584;13.460;2023-04-25T07:21:29;96096.25;;;9.29;100.00
45731;BME280;31440;48.584;13.460;2023-04-25T07:24:37;96098.88;;;9.49;100.00
45731;BME280;31440;48.584;13.460;2023-04-25T07:27:42;96095.81;;;9.60;100.00
45731;BME280;31440;48.584;13.460;2023-04-25T07:30:53;96089.63;;;10.22;100.00
45731;BME280;31440;48.584;13.460;2023-04-25T07:33:58;96090.94;;;10.30;100.00
45731;BME280;31440;48.584;13.460;2023-04-25T07:37:05;96091.47;;;9.60;100.00
45731;BME280;31440;48.584;13.460;2023-04-25T07:40:19;96086.91;;;8.61;100.00
45731;BME280;31440;48.584;13.460;2023-04-25T07:43:30;96040.22;;;9.06;100.00
45731;BME280;31440;48.584;13.460;2023-04-25T07:49:44;96075.09;;;9.99;100.00
45731;BME280;31440;48.584;13.460;2023-04-25T07:52:49;96074.25;;;10.17;100.00
45731;BME280;31440;48.584;13.460;2023-04-25T07:56:00;96075.44;;;9.91;100.00
45731;BME280;31440;48.584;13.460;2023-04-25T07:59:08;96075.81;;;10.40;100.00
45731;BME280;31440;48.584;13.460;2023-04-25T08:02:13;96076.66;;;10.03;100.00
45731;BME280;31440;48.584;13.460;2023-04-25T08:05:18;96082.28;;;9.33;100.00
45731;BME280;31440;48.584;13.460;2023-04-25T08:08:33;96064.66;;;9.41;100.00
45731;BME280;31440;48.584;13.460;2023-04-25T08:11:38;96086.06;;;9.85;100.00
45731;BME280;31440;48.584;13.460;2023-04-25T08:14:44;96089.31;;;10.46;100.00
45731;BME280;31440;48.584;13.460;2023-04-25T08:17:49;96093.09;;;9.63;100.00
45731;BME280;31440;48.584;13.460;2023-04-25T08:20:54;96080.28;;;10.18;100.00
45731;BME280;31440;48.584;13.460;2023-04-25T08:23:59;96082.69;;;10.60;100.00
45731;BME280;31440;48.584;13.460;2023-04-25T08:27:08;96050.38;;;10.10;100.00
45731;BME280;31440;48.584;13.460;2023-04-25T08:33:20;96072.28;;;11.14;100.00
45731;BME280;31440;48.584;13.460;2023-04-25T08:36:37;96063.91;;;11.93;100.00
45731;BME280;31440;48.584;13.460;2023-04-25T08:39:58;96082.03;;;11.61;90.85
45731;BME280;31440;48.584;13.460;2023-04-25T08:43:19;96074.72;;;11.52;98.48
45731;BME280;31440;48.584;13.460;2023-04-25T08:46:25;96057.06;;;12.25;87.12
45731;BME280;31440;48.584;13.460;2023-04-25T08:49:45;96060.25;;;11.64;84.47
45731;BME280;31440;48.584;13.460;2023-04-25T08:52:53;96055.97;;;12.44;86.23
45731;BME280;31440;48.584;13.460;2023-04-25T08:56:00;96057.22;;;12.84;76.26
45731;BME280;31440;48.584;13.460;2023-04-25T09:02:32;96058.03;;;12.85;76.04
45731;BME280;31440;48.584;13.460;2023-04-25T09:05:39;96058.69;;;11.77;92.69
45731;BME280;31440;48.584;13.460;2023-04-25T09:08:45;96065.22;;;11.68;86.46
45731;BME280;31440;48.584;13.460;2023-04-25T09:11:50;96075.00;;;11.46;86.53
45731;BME280;31440;48.584;13.460;2023-04-25T09:15:03;96076.84;;;11.27;91.67
45731;BME280;31440;48.584;13.460;2023-04-25T09:18:33;96084.00;;;10.49;100.00
45731;BME280;31440;48.584;13.460;2023-04-25T09:21:38;96101.34;;;8.88;100.00
45731;BME280;31440;48.584;13.460;2023-04-25T09:24:44;96103.00;;;9.73;100.00
45731;BME280;31440;48.584;13.460;2023-04-25T09:27:52;96102.22;;;10.29;100.00
45731;BME280;31440;48.584;13.460;2023-04-25T09:31:02;96114.22;;;9.33;100.00
45731;BME280;31440;48.584;13.460;2023-04-25T09:34:12;96126.16;;;8.94;100.00
45731;BME280;31440;48.584;13.460;2023-04-25T09:41:08;96121.41;;;9.47;100.00
45731;BME280;31440;48.584;13.460;2023-04-25T09:44:23;96105.97;;;9.44;100.00
45731;BME280;31440;48.584;13.460;2023-04-25T09:47:30;96118.03;;;9.45;99.02
45731;BME280;31440;48.584;13.460;2023-04-25T09:50:36;96122.63;;;10.74;100.00
45731;BME280;31440;48.584;13.460;2023-04-25T09:53:46;96121.53;;;10.99;100.00
45731;BME280;31440;48.584;13.460;2023-04-25T09:57:22;96113.47;;;13.03;96.12
45731;BME280;31440;48.584;13.460;2023-04-25T10:00:27;96114.34;;;12.87;87.92
45731;BME280;31440;48.584;13.460;2023-04-25T10:03:39;96110.94;;;13.33;84.44
45731;BME280;31440;48.584;13.460;2023-04-25T10:10:12;96108.72;;;12.95;85.66
45731;BME280;31440;48.584;13.460;2023-04-25T10:13:18;96086.22;;;13.84;84.13
45731;BME280;31440;48.584;13.460;2023-04-25T10:16:23;96093.78;;;13.58;79.16
45731;BME280;31440;48.584;13.460;2023-04-25T10:19:29;96088.22;;;13.65;82.41
45731;BME280;31440;48.584;13.460;2023-04-25T10:22:36;96085.28;;;12.64;84.25
45731;BME280;31440;48.584;13.460;2023-04-25T10:25:42;96099.78;;;12.99;79.82
45731;BME280;31440;48.584;13.460;2023-04-25T10:28:55;96098.63;;;11.24;99.60
45731;BME280;31440;48.584;13.460;2023-04-25T10:31:59;96087.47;;;11.39;96.12
45731;BME280;31440;48.584;13.460;2023-04-25T10:35:11;96080.00;;;11.33;93.13
45731;BME280;31440;48.584;13.460;2023-04-25T10:38:16;96084.31;;;11.84;93.24
45731;BME280;31440;48.584;13.460;2023-04-25T10:41:21;96086.47;;;12.58;84.69
45731;BME280;31440;48.584;13.460;2023-04-25T10:44:30;96082.09;;;14.65;73.46
45731;BME280;31440;48.584;13.460;2023-04-25T10:47:36;96096.38;;;14.03;67.70
45731;BME280;31440;48.584;13.460;2023-04-25T10:50:47;96104.41;;;12.14;99.57
45731;BME280;31440;48.584;13.460;2023-04-25T10:56:59;96115.84;;;10.34;99.02
45731;BME280;31440;48.584;13.460;2023-04-25T11:03:16;96101.94;;;11.95;97.60
45731;BME280;31440;48.584;13.460;2023-04-25T11:06:32;96103.63;;;11.96;95.48
45731;BME280;31440;48.584;13.460;2023-04-25T11:09:41;96108.41;;;11.36;99.97
45731;BME280;31440;48.584;13.460;2023-04-25T11:12:46;96111.06;;;11.86;93.87
45731;BME280;31440;48.584;13.460;2023-04-25T11:15:51;96115.59;;;11.31;82.48
45731;BME280;31440;48.584;13.460;2023-04-25T11:19:15;96115.44;;;11.69;81.06
45731;BME280;31440;48.584;13.460;2023-04-25T11:22:21;96117.50;;;12.30;86.43
45731;BME280;31440;48.584;13.460;2023-04-25T11:25:26;96111.78;;;13.63;72.27
45731;BME280;31440;48.584;13.460;2023-04-25T11:28:30;96098.91;;;13.30;66.30
45731;BME280;31440;48.584;13.460;2023-04-25T11:31:35;96097.00;;;14.49;65.39
45731;BME280;31440;48.584;13.460;2023-04-25T11:34:43;96099.66;;;15.17;55.49
45731;BME280;31440;48.584;13.460;2023-04-25T11:37:48;96105.97;;;14.45;60.70
45731;BME280;31440;48.584;13.460;2023-04-25T11:40:53;96093.53;;;15.30;56.40
45731;BME280;31440;48.584;13.460;2023-04-25T11:43:57;96099.41;;;15.34;62.18
45731;BME280;31440;48.584;13.460;2023-04-25T11:47:02;96088.09;;;14.94;58.93
45731;BME280;31440;48.584;13.460;2023-04-25T11:50:07;96101.59;;;14.03;59.36
45731;BME280;31440;48.584;13.460;2023-04-25T11:53:12;96095.94;;;14.94;60.11
45731;BME280;31440;48.584;13.460;2023-04-25T11:56:17;96117.47;;;14.56;55.38
45731;BME280;31440;48.584;13.460;2023-04-25T11:59:25;96121.53;;;12.35;64.69
45731;BME280;31440;48.584;13.460;2023-04-25T12:02:30;96130.31;;;12.00;64.65
45731;BME280;31440;48.584;13.460;2023-04-25T12:05:36;96145.53;;;11.21;72.41
45731;BME280;31440;48.584;13.460;2023-04-25T12:09:04;96152.94;;;10.36;90.17
45731;BME280;31440;48.584;13.460;2023-04-25T12:12:09;96162.34;;;10.58;95.53
45731;BME280;31440;48.584;13.460;2023-04-25T12:15:22;96183.09;;;10.00;100.00
45731;BME280;31440;48.584;13.460;2023-04-25T12:18:27;96172.47;;;9.86;100.00
45731;BME280;31440;48.584;13.460;2023-04-25T12:21:32;96171.13;;;9.13;100.00
45731;BME280;31440;48.584;13.460;2023-04-25T12:24:44;96158.16;;;8.91;100.00
45731;BME280;31440;48.584;13.460;2023-04-25T12:27:49;96164.06;;;8.95;100.00
45731;BME280;31440;48.584;13.460;2023-04-25T12:30:54;96160.38;;;8.57;100.00
45731;BME280;31440;48.584;13.460;2023-04-25T12:33:59;96166.31;;;9.88;100.00
45731;BME280;31440;48.584;13.460;2023-04-25T12:37:04;96163.25;;;9.78;100.00
45731;BME280;31440;48.584;13.460;2023-04-25T12:40:10;96133.78;;;10.20;100.00
45731;BME280;31440;48.584;13.460;2023-04-25T12:43:15;96146.41;;;11.73;100.00
45731;BME280;31440;48.584;13.460;2023-04-25T12:46:20;96138.19;;;12.80;93.22
45731;BME280;31440;48.584;13.460;2023-04-25T12:49:24;96142.88;;;13.20;75.03
45731;BME280;31440;48.584;13.460;2023-04-25T12:52:29;96151.03;;;12.67;83.12
45731;BME280;31440;48.584;13.460;2023-04-25T12:58:40;96139.22;;;13.09;81.79
45731;BME280;31440;48.584;13.460;2023-04-25T13:01:44;96123.00;;;12.57;84.51
45731;BME280;31440;48.584;13.460;2023-04-25T13:04:50;96132.22;;;13.09;78.74
45731;BME280;31440;48.584;13.460;2023-04-25T13:07:55;96133.44;;;13.93;74.12
45731;BME280;31440;48.584;13.460;2023-04-25T13:11:00;96129.56;;;14.29;74.63
45731;BME280;31440;48.584;13.460;2023-04-25T13:14:05;96136.63;;;13.39;78.46
45731;BME280;31440;48.584;13.460;2023-04-25T13:17:10;96128.25;;;14.79;80.01
45731;BME280;31440;48.584;13.460;2023-04-25T13:20:14;96130.28;;;12.66;79.45
45731;BME280;31440;48.584;13.460;2023-04-25T13:23:20;96134.88;;;13.99;79.19
45731;BME280;31440;48.584;13.460;2023-04-25T13:26:25;96130.50;;;14.42;68.81
45731;BME280;31440;48.584;13.460;2023-04-25T13:29:30;96129.28;;;14.19;67.18
45731;BME280;31440;48.584;13.460;2023-04-25T13:32:35;96123.66;;;13.07;75.81
45731;BME280;31440;48.584;13.460;2023-04-25T13:35:42;96114.66;;;14.74;68.89
45731;BME280;31440;48.584;13.460;2023-04-25T13:38:47;96120.97;;;13.84;69.23
45731;BME280;31440;48.584;13.460;2023-04-25T13:41:53;96120.97;;;13.99;74.36
45731;BME280;31440;48.584;13.460;2023-04-25T13:44:58;96118.84;;;14.62;66.95
45731;BME280;31440;48.584;13.460;2023-04-25T13:48:02;96133.91;;;13.56;78.88
45731;BME280;31440;48.584;13.460;2023-04-25T13:51:07;96125.88;;;12.19;86.52
45731;BME280;31440;48.584;13.460;2023-04-25T13:54:12;96085.59;;;12.09;90.08
45731;BME280;31440;48.584;13.460;2023-04-25T13:57:17;96122.66;;;12.63;87.44
45731;BME280;31440;48.584;13.460;2023-04-25T14:00:22;96131.03;;;11.34;93.05
45731;BME280;31440;48.584;13.460;2023-04-25T14:03:26;96136.00;;;11.73;92.11
45731;BME280;31440;48.584;13.460;2023-04-25T14:06:32;96140.53;;;11.70;91.99
45731;BME280;31440;48.584;13.460;2023-04-25T14:09:37;96149.03;;;11.20;94.62
45731;BME280;31440;48.584;13.460;2023-04-25T14:12:41;96151.94;;;10.78;100.00
45731;BME280;31440;48.584;13.460;2023-04-25T14:18:52;96165.66;;;12.04;100.00
45731;BME280;31440;48.584;13.460;2023-04-25T14:21:56;96186.59;;;10.77;100.00
45731;BME280;31440;48.584;13.460;2023-04-25T14:25:01;96179.19;;;11.41;100.00
45731;BME280;31440;48.584;13.460;2023-04-25T14:28:05;96188.94;;;12.07;100.00
45731;BME280;31440;48.584;13.460;2023-04-25T14:31:10;96192.59;;;11.15;100.00
45731;BME280;31440;48.584;13.460;2023-04-25T14:34:15;96206.94;;;11.58;100.00
45731;BME280;31440;48.584;13.460;2023-04-25T14:37:19;96200.59;;;11.46;90.40
45731;BME280;31440;48.584;13.460;2023-04-25T14:40:25;96198.56;;;11.53;80.85
45731;BME280;31440;48.584;13.460;2023-04-25T14:43:29;96201.66;;;11.42;82.13
45731;BME280;31440;48.584;13.460;2023-04-25T14:49:40;96192.31;;;11.02;91.71
45731;BME280;31440;48.584;13.460;2023-04-25T14:52:44;96200.66;;;10.71;100.00
45731;BME280;31440;48.584;13.460;2023-04-25T14:55:49;96190.75;;;10.81;100.00
45731;BME280;31440;48.584;13.460;2023-04-25T14:58:54;96194.66;;;10.32;100.00
45731;BME280;31440;48.584;13.460;2023-04-25T15:01:58;96193.13;;;10.07;100.00
45731;BME280;31440;48.584;13.460;2023-04-25T15:08:09;96204.34;;;10.08;100.00
45731;BME280;31440;48.584;13.460;2023-04-25T15:11:14;96203.63;;;9.84;100.00
45731;BME280;31440;48.584;13.460;2023-04-25T15:14:19;96207.00;;;9.66;100.00
45731;BME280;31440;48.584;13.460;2023-04-25T15:17:23;96221.03;;;9.60;100.00
45731;BME280;31440;48.584;13.460;2023-04-25T15:20:29;96213.09;;;10.05;100.00
45731;BME280;31440;48.584;13.460;2023-04-25T15:26:40;96212.25;;;10.05;100.00
45731;BME280;31440;48.584;13.460;2023-04-25T15:29:45;96232.16;;;9.20;100.00
45731;BME280;31440;48.584;13.460;2023-04-25T15:32:49;96227.22;;;9.98;100.00
45731;BME280;31440;48.584;13.460;2023-04-25T15:35:54;96225.91;;;9.68;100.00
45731;BME280;31440;48.584;13.460;2023-04-25T15:38:58;96224.25;;;9.87;100.00
45731;BME280;31440;48.584;13.460;2023-04-25T15:42:03;96231.06;;;10.10;100.00
45731;BME280;31440;48.584;13.460;2023-04-25T15:45:09;96234.28;;;9.74;100.00
45731;BME280;31440;48.584;13.460;2023-04-25T15:48:14;96226.72;;;11.07;100.00
45731;BME280;31440;48.584;13.460;2023-04-25T15:51:20;96237.09;;;10.89;100.00
45731;BME280;31440;48.584;13.460;2023-04-25T15:54:24;96244.59;;;10.37;100.00
45731;BME280;31440;48.584;13.460;2023-04-25T15:57:31;96212.41;;;10.80;100.00
45731;BME280;31440;48.584;13.460;2023-04-25T16:00:36;96237.25;;;10.86;100.00
45731;BME280;31440;48.584;13.460;2023-04-25T16:03:41;96234.41;;;10.71;100.00
45731;BME280;31440;48.584;13.460;2023-04-25T16:09:52;96234.41;;;10.32;100.00
45731;BME280;31440;48.584;13.460;2023-04-25T16:12:56;96242.50;;;9.42;100.00
45731;BME280;31440;48.584;13.460;2023-04-25T16:16:01;96236.94;;;9.93;100.00
45731;BME280;31440;48.584;13.460;2023-04-25T16:19:06;96237.81;;;9.52;100.00
45731;BME280;31440;48.584;13.460;2023-04-25T16:22:10;96238.53;;;9.55;100.00
45731;BME280;31440;48.584;13.460;2023-04-25T16:28:22;96252.94;;;9.83;100.00
45731;BME280;31440;48.584;13.460;2023-04-25T16:31:26;96254.66;;;9.62;100.00
45731;BME280;31440;48.584;13.460;2023-04-25T16:34:31;96260.97;;;9.76;100.00
45731;BME280;31440;48.584;13.460;2023-04-25T16:37:36;96255.34;;;9.45;100.00
45731;BME280;31440;48.584;13.460;2023-04-25T16:40:40;96269.31;;;10.05;100.00
45731;BME280;31440;48.584;13.460;2023-04-25T16:43:45;96268.41;;;10.06;100.00
45731;BME280;31440;48.584;13.460;2023-04-25T16:46:49;96273.16;;;9.95;100.00
45731;BME280;31440;48.584;13.460;2023-04-25T16:52:59;96278.38;;;10.56;100.00
45731;BME280;31440;48.584;13.460;2023-04-25T16:56:04;96288.50;;;10.41;100.00
45731;BME280;31440;48.584;13.460;2023-04-25T16:59:08;96294.72;;;10.78;100.00
45731;BME280;31440;48.584;13.460;2023-04-25T17:02:13;96295.63;;;10.57;100.00
45731;BME280;31440;48.584;13.460;2023-04-25T17:05:18;96294.28;;;10.67;100.00
45731;BME280;31440;48.584;13.460;2023-04-25T17:08:23;96296.75;;;10.90;100.00
45731;BME280;31440;48.584;13.460;2023-04-25T17:11:29;96272.44;;;10.72;100.00
45731;BME280;31440;48.584;13.460;2023-04-25T17:14:34;96303.59;;;11.11;100.00
45731;BME280;31440;48.584;13.460;2023-04-25T17:17:40;96305.63;;;11.42;100.00
45731;BME280;31440;48.584;13.460;2023-04-25T17:20:44;96305.53;;;11.44;100.00
45731;BME280;31440;48.584;13.460;2023-04-25T17:23:49;96317.13;;;10.99;100.00
45731;BME280;31440;48.584;13.460;2023-04-25T17:26:54;96311.84;;;11.57;100.00